sensor_id;sensor_type;location;lat;lon;timestamp;pressure;altitude;pressure_sealevel;temperature;humidity
68456;BME280;55437;55.046;38.838;2024-03-06T00:00:10;100989.31;;;-1.00;55.23
68456;BME280;55437;55.046;38.838;2024-03-06T00:02:36;100993.50;;;-1.01;55.15
68456;BME280;55437;55.046;38.838;2024-03-06T00:05:03;100996.88;;;-1.00;54.75
68456;BME280;55437;55.046;38.838;2024-03-06T00:07:30;100994.13;;;-1.06;55.27
68456;BME280;55437;55.046;38.838;2024-03-06T00:09:57;100993.56;;;-0.99;55.20
68456;BME280;55437;55.046;38.838;2024-03-06T00:12:23;101001.25;;;-0.95;55.12
68456;BME280;55437;55.046;38.838;2024-03-06T00:14:49;100993.22;;;-0.83;55.14
68456;BME280;55437;55.046;38.838;2024-03-06T00:17:15;100996.94;;;-0.74;54.83
68456;BME280;55437;55.046;38.838;2024-03-06T00:19:42;100996.00;;;-0.76;54.73
68456;BME280;55437;55.046;38.838;2024-03-06T00:22:09;101002.50;;;-0.82;54.81
68456;BME280;55437;55.046;38.838;2024-03-06T00:24:35;101003.94;;;-0.90;54.81
68456;BME280;55437;55.046;38.838;2024-03-06T00:27:01;100997.38;;;-0.85;55.03
68456;BME280;55437;55.046;38.838;2024-03-06T00:30:16;101005.81;;;-0.85;55.09
68456;BME280;55437;55.046;38.838;2024-03-06T00:32:48;101005.75;;;-0.86;54.54
68456;BME280;55437;55.046;38.838;2024-03-06T00:35:14;101009.94;;;-0.87;54.89
68456;BME280;55437;55.046;38.838;2024-03-06T00:38:05;101012.41;;;-0.88;54.84
68456;BME280;55437;55.046;38.838;2024-03-06T00:40:32;101008.13;;;-0.91;55.18
68456;BME280;55437;55.046;38.838;2024-03-06T00:42:58;101007.41;;;-0.87;55.01
68456;BME280;55437;55.046;38.838;2024-03-06T00:45:24;101014.19;;;-0.84;54.89
68456;BME280;55437;55.046;38.838;2024-03-06T00:47:50;101019.41;;;-0.80;54.93
68456;BME280;55437;55.046;38.838;2024-03-06T00:50:17;101017.69;;;-0.81;54.99
68456;BME280;55437;55.046;38.838;2024-03-06T00:52:44;101009.44;;;-0.77;54.44
68456;BME280;55437;55.046;38.838;2024-03-06T00:55:11;101010.34;;;-0.75;54.32
68456;BME280;55437;55.046;38.838;2024-03-06T00:57:37;101006.03;;;-0.77;54.80
68456;BME280;55437;55.046;38.838;2024-03-06T01:00:04;101011.66;;;-0.86;54.80
68456;BME280;55437;55.046;38.838;2024-03-06T01:02:39;101007.66;;;-0.79;54.58
68456;BME280;55437;55.046;38.838;2024-03-06T01:05:06;101011.19;;;-0.74;54.44
68456;BME280;55437;55.046;38.838;2024-03-06T01:07:33;101006.22;;;-0.73;54.76
68456;BME280;55437;55.046;38.838;2024-03-06T01:10:00;101006.00;;;-0.79;54.31
68456;BME280;55437;55.046;38.838;2024-03-06T01:12:29;101008.28;;;-0.86;54.53
68456;BME280;55437;55.046;38.838;2024-03-06T01:14:56;101009.53;;;-0.99;54.81
68456;BME280;55437;55.046;38.838;2024-03-06T01:17:22;101011.78;;;-1.06;55.04
68456;BME280;55437;55.046;38.838;2024-03-06T01:19:50;101007.19;;;-0.93;55.02
68456;BME280;55437;55.046;38.838;2024-03-06T01:22:16;101008.34;;;-0.85;54.72
68456;BME280;55437;55.046;38.838;2024-03-06T01:24:43;101013.22;;;-0.89;54.32
68456;BME280;55437;55.046;38.838;2024-03-06T01:27:09;101009.72;;;-0.93;54.55
68456;BME280;55437;55.046;38.838;2024-03-06T01:29:36;101011.44;;;-0.92;54.72
68456;BME280;55437;55.046;38.838;2024-03-06T01:32:02;101003.13;;;-0.89;54.69
68456;BME280;55437;55.046;38.838;2024-03-06T01:34:28;101003.69;;;-0.73;54.08
68456;BME280;55437;55.046;38.838;2024-03-06T01:36:55;101008.97;;;-0.65;54.05
68456;BME280;55437;55.046;38.838;2024-03-06T01:39:22;101006.81;;;-0.53;53.73
68456;BME280;55437;55.046;38.838;2024-03-06T01:42:17;101007.22;;;-0.41;53.35
68456;BME280;55437;55.046;38.838;2024-03-06T01:44:44;101003.34;;;-0.29;53.22
68456;BME280;55437;55.046;38.838;2024-03-06T01:47:35;101007.84;;;-0.19;52.84
68456;BME280;55437;55.046;38.838;2024-03-06T01:50:01;101011.66;;;-0.32;52.89
68456;BME280;55437;55.046;38.838;2024-03-06T01:52:30;101011.44;;;-0.40;53.05
68456;BME280;55437;55.046;38.838;2024-03-06T01:54:56;101007.44;;;-0.33;52.81
68456;BME280;55437;55.046;38.838;2024-03-06T01:57:22;101000.78;;;-0.31;52.78
68456;BME280;55437;55.046;38.838;2024-03-06T01:59:49;101011.78;;;-0.29;52.77
68456;BME280;55437;55.046;38.838;2024-03-06T02:02:15;101010.59;;;-0.13;52.73
68456;BME280;55437;55.046;38.838;2024-03-06T02:04:41;101015.84;;;-0.06;52.45
68456;BME280;55437;55.046;38.838;2024-03-06T02:07:10;101013.13;;;-0.12;52.37
68456;BME280;55437;55.046;38.838;2024-03-06T02:09:39;101010.47;;;-0.16;52.51
68456;BME280;55437;55.046;38.838;2024-03-06T02:12:06;101014.63;;;-0.18;52.66
68456;BME280;55437;55.046;38.838;2024-03-06T02:14:37;101012.59;;;-0.30;53.04
68456;BME280;55437;55.046;38.838;2024-03-06T02:17:04;101026.53;;;-0.41;52.92
68456;BME280;55437;55.046;38.838;2024-03-06T02:19:43;101028.84;;;-0.47;53.19
68456;BME280;55437;55.046;38.838;2024-03-06T02:22:11;101027.59;;;-0.60;53.29
68456;BME280;55437;55.046;38.838;2024-03-06T02:24:42;101028.28;;;-0.65;53.41
68456;BME280;55437;55.046;38.838;2024-03-06T02:27:08;101030.63;;;-0.70;53.44
68456;BME280;55437;55.046;38.838;2024-03-06T02:29:34;101024.09;;;-0.65;53.45
68456;BME280;55437;55.046;38.838;2024-03-06T02:32:04;101020.00;;;-0.61;53.48
68456;BME280;55437;55.046;38.838;2024-03-06T02:34:30;101023.56;;;-0.55;53.34
68456;BME280;55437;55.046;38.838;2024-03-06T02:36:57;101029.66;;;-0.48;53.25
68456;BME280;55437;55.046;38.838;2024-03-06T02:39:23;101026.31;;;-0.47;52.97
68456;BME280;55437;55.046;38.838;2024-03-06T02:41:50;101025.44;;;-0.49;53.12
68456;BME280;55437;55.046;38.838;2024-03-06T02:44:16;101028.03;;;-0.46;53.18
68456;BME280;55437;55.046;38.838;2024-03-06T02:46:48;101022.34;;;-0.41;53.08
68456;BME280;55437;55.046;38.838;2024-03-06T02:49:18;101036.09;;;-0.31;52.88
68456;BME280;55437;55.046;38.838;2024-03-06T02:51:44;101035.28;;;-0.30;53.03
68456;BME280;55437;55.046;38.838;2024-03-06T02:54:10;101035.41;;;-0.27;52.75
68456;BME280;55437;55.046;38.838;2024-03-06T02:56:37;101036.72;;;-0.38;52.75
68456;BME280;55437;55.046;38.838;2024-03-06T02:59:02;101033.88;;;-0.49;53.04
68456;BME280;55437;55.046;38.838;2024-03-06T03:01:54;101048.63;;;-0.61;53.05
68456;BME280;55437;55.046;38.838;2024-03-06T03:04:21;101048.84;;;-0.53;53.41
68456;BME280;55437;55.046;38.838;2024-03-06T03:06:48;101047.13;;;-0.54;53.08
68456;BME280;55437;55.046;38.838;2024-03-06T03:09:15;101043.97;;;-0.47;53.26
68456;BME280;55437;55.046;38.838;2024-03-06T03:11:42;101048.44;;;-0.40;52.98
68456;BME280;55437;55.046;38.838;2024-03-06T03:14:12;101045.28;;;-0.33;52.87
68456;BME280;55437;55.046;38.838;2024-03-06T03:16:38;101049.09;;;-0.46;53.04
68456;BME280;55437;55.046;38.838;2024-03-06T03:19:04;101052.34;;;-0.50;53.22
68456;BME280;55437;55.046;38.838;2024-03-06T03:21:30;101056.13;;;-0.62;53.34
68456;BME280;55437;55.046;38.838;2024-03-06T03:23:58;101056.72;;;-0.69;53.20
68456;BME280;55437;55.046;38.838;2024-03-06T03:26:23;101056.63;;;-0.73;53.64
68456;BME280;55437;55.046;38.838;2024-03-06T03:29:14;101067.78;;;-0.66;53.33
68456;BME280;55437;55.046;38.838;2024-03-06T03:31:40;101062.44;;;-0.75;53.76
68456;BME280;55437;55.046;38.838;2024-03-06T03:34:06;101061.69;;;-0.73;53.80
68456;BME280;55437;55.046;38.838;2024-03-06T03:36:57;101062.44;;;-0.75;53.67
68456;BME280;55437;55.046;38.838;2024-03-06T03:39:23;101065.03;;;-0.72;53.63
68456;BME280;55437;55.046;38.838;2024-03-06T03:41:50;101064.78;;;-0.80;53.46
68456;BME280;55437;55.046;38.838;2024-03-06T03:44:18;101068.84;;;-0.85;54.02
68456;BME280;55437;55.046;38.838;2024-03-06T03:46:46;101064.38;;;-0.92;53.96
68456;BME280;55437;55.046;38.838;2024-03-06T03:49:13;101069.47;;;-0.90;53.80
68456;BME280;55437;55.046;38.838;2024-03-06T03:51:40;101065.78;;;-1.00;53.57
68456;BME280;55437;55.046;38.838;2024-03-06T03:54:06;101069.59;;;-1.11;53.72
68456;BME280;55437;55.046;38.838;2024-03-06T03:56:32;101063.59;;;-1.15;53.87
68456;BME280;55437;55.046;38.838;2024-03-06T03:58:59;101071.34;;;-1.09;53.78
68456;BME280;55437;55.046;38.838;2024-03-06T04:01:25;101066.59;;;-1.01;53.73
68456;BME280;55437;55.046;38.838;2024-03-06T04:03:51;101064.22;;;-0.96;53.49
68456;BME280;55437;55.046;38.838;2024-03-06T04:06:18;101063.47;;;-0.94;53.36
68456;BME280;55437;55.046;38.838;2024-03-06T04:08:44;101068.63;;;-0.91;53.95
68456;BME280;55437;55.046;38.838;2024-03-06T04:11:11;101069.66;;;-0.86;53.80
68456;BME280;55437;55.046;38.838;2024-03-06T04:13:37;101064.78;;;-0.80;53.44
68456;BME280;55437;55.046;38.838;2024-03-06T04:16:05;101069.25;;;-0.73;53.33
68456;BME280;55437;55.046;38.838;2024-03-06T04:18:32;101072.88;;;-0.64;53.15
68456;BME280;55437;55.046;38.838;2024-03-06T04:21:07;101064.56;;;-0.60;52.97
68456;BME280;55437;55.046;38.838;2024-03-06T04:23:35;101067.97;;;-0.60;53.00
68456;BME280;55437;55.046;38.838;2024-03-06T04:26:01;101071.44;;;-0.56;53.17
68456;BME280;55437;55.046;38.838;2024-03-06T04:28:27;101066.28;;;-0.59;52.98
68456;BME280;55437;55.046;38.838;2024-03-06T04:31:18;101063.94;;;-0.55;53.08
68456;BME280;55437;55.046;38.838;2024-03-06T04:34:03;101072.53;;;-0.48;52.86
68456;BME280;55437;55.046;38.838;2024-03-06T04:36:29;101069.47;;;-0.40;52.61
68456;BME280;55437;55.046;38.838;2024-03-06T04:38:57;101079.59;;;-0.13;52.31
68456;BME280;55437;55.046;38.838;2024-03-06T04:41:23;101074.69;;;0.20;51.99
68456;BME280;55437;55.046;38.838;2024-03-06T04:43:49;101078.41;;;0.05;52.21
68456;BME280;55437;55.046;38.838;2024-03-06T04:46:16;101078.63;;;0.11;52.27
68456;BME280;55437;55.046;38.838;2024-03-06T04:48:42;101082.38;;;0.53;51.61
68456;BME280;55437;55.046;38.838;2024-03-06T04:51:09;101077.25;;;0.80;51.05
68456;BME280;55437;55.046;38.838;2024-03-06T04:53:35;101078.00;;;1.07;50.36
68456;BME280;55437;55.046;38.838;2024-03-06T04:56:01;101074.84;;;1.16;50.40
68456;BME280;55437;55.046;38.838;2024-03-06T04:58:28;101081.56;;;1.49;49.49
68456;BME280;55437;55.046;38.838;2024-03-06T05:00:55;101077.00;;;1.68;49.16
68456;BME280;55437;55.046;38.838;2024-03-06T05:03:21;101070.81;;;1.95;48.37
68456;BME280;55437;55.046;38.838;2024-03-06T05:05:48;101073.63;;;2.07;48.18
68456;BME280;55437;55.046;38.838;2024-03-06T05:08:14;101079.03;;;2.22;48.06
68456;BME280;55437;55.046;38.838;2024-03-06T05:10:40;101079.28;;;2.73;47.43
68456;BME280;55437;55.046;38.838;2024-03-06T05:13:11;101083.72;;;3.32;46.21
68456;BME280;55437;55.046;38.838;2024-03-06T05:15:37;101079.38;;;3.74;45.85
68456;BME280;55437;55.046;38.838;2024-03-06T05:18:05;101079.31;;;4.28;44.74
68456;BME280;55437;55.046;38.838;2024-03-06T05:20:31;101079.09;;;4.78;44.15
68456;BME280;55437;55.046;38.838;2024-03-06T05:22:59;101081.94;;;5.05;43.56
68456;BME280;55437;55.046;38.838;2024-03-06T05:25:25;101085.72;;;5.49;42.75
68456;BME280;55437;55.046;38.838;2024-03-06T05:27:51;101078.38;;;5.85;42.05
68456;BME280;55437;55.046;38.838;2024-03-06T05:30:17;101075.13;;;6.04;41.66
68456;BME280;55437;55.046;38.838;2024-03-06T05:32:43;101074.47;;;6.40;40.75
68456;BME280;55437;55.046;38.838;2024-03-06T05:35:11;101080.50;;;6.56;40.62
68456;BME280;55437;55.046;38.838;2024-03-06T05:37:37;101089.88;;;6.59;40.31
68456;BME280;55437;55.046;38.838;2024-03-06T05:40:03;101078.09;;;7.03;39.39
68456;BME280;55437;55.046;38.838;2024-03-06T05:42:33;101077.34;;;7.57;39.18
68456;BME280;55437;55.046;38.838;2024-03-06T05:44:59;101077.34;;;7.83;38.02
68456;BME280;55437;55.046;38.838;2024-03-06T05:47:54;101082.44;;;7.48;38.10
68456;BME280;55437;55.046;38.838;2024-03-06T05:50:21;101093.47;;;7.09;38.01
68456;BME280;55437;55.046;38.838;2024-03-06T05:52:48;101096.81;;;6.95;38.21
68456;BME280;55437;55.046;38.838;2024-03-06T05:55:14;101084.88;;;6.83;38.19
68456;BME280;55437;55.046;38.838;2024-03-06T05:57:41;101095.91;;;6.74;38.41
68456;BME280;55437;55.046;38.838;2024-03-06T06:00:12;101093.22;;;6.45;38.29
68456;BME280;55437;55.046;38.838;2024-03-06T06:02:38;101087.84;;;6.00;38.64
68456;BME280;55437;55.046;38.838;2024-03-06T06:05:05;101091.97;;;5.84;38.74
68456;BME280;55437;55.046;38.838;2024-03-06T06:07:33;101088.75;;;6.08;38.42
68456;BME280;55437;55.046;38.838;2024-03-06T06:09:59;101091.34;;;6.14;38.36
68456;BME280;55437;55.046;38.838;2024-03-06T06:12:52;101089.75;;;6.34;37.73
68456;BME280;55437;55.046;38.838;2024-03-06T06:15:18;101095.00;;;6.62;37.56
68456;BME280;55437;55.046;38.838;2024-03-06T06:17:44;101094.25;;;6.93;37.19
68456;BME280;55437;55.046;38.838;2024-03-06T06:20:12;101101.06;;;6.93;37.16
68456;BME280;55437;55.046;38.838;2024-03-06T06:23:01;101101.97;;;7.14;36.94
68456;BME280;55437;55.046;38.838;2024-03-06T06:25:29;101100.31;;;7.39;36.47
68456;BME280;55437;55.046;38.838;2024-03-06T06:27:55;101093.50;;;7.78;36.11
68456;BME280;55437;55.046;38.838;2024-03-06T06:30:21;101090.06;;;8.15;35.76
68456;BME280;55437;55.046;38.838;2024-03-06T06:32:47;101084.06;;;8.39;34.88
68456;BME280;55437;55.046;38.838;2024-03-06T06:35:13;101092.50;;;8.67;34.94
68456;BME280;55437;55.046;38.838;2024-03-06T06:37:39;101094.16;;;8.71;34.59
68456;BME280;55437;55.046;38.838;2024-03-06T06:40:07;101098.41;;;8.81;34.16
68456;BME280;55437;55.046;38.838;2024-03-06T06:42:34;101088.97;;;8.86;33.89
68456;BME280;55437;55.046;38.838;2024-03-06T06:45:01;101103.53;;;8.80;33.76
68456;BME280;55437;55.046;38.838;2024-03-06T06:47:30;101104.34;;;8.83;33.83
68456;BME280;55437;55.046;38.838;2024-03-06T06:50:21;101107.06;;;8.50;33.87
68456;BME280;55437;55.046;38.838;2024-03-06T06:52:49;101098.53;;;8.52;33.83
68456;BME280;55437;55.046;38.838;2024-03-06T06:55:14;101103.59;;;8.69;33.33
68456;BME280;55437;55.046;38.838;2024-03-06T06:57:40;101110.38;;;8.81;33.12
68456;BME280;55437;55.046;38.838;2024-03-06T07:07:18;101103.69;;;8.36;32.81
68456;BME280;55437;55.046;38.838;2024-03-06T07:09:46;101105.31;;;8.65;32.49
68456;BME280;55437;55.046;38.838;2024-03-06T07:14:58;101102.97;;;9.68;31.16
68456;BME280;55437;55.046;38.838;2024-03-06T07:17:25;101109.47;;;10.05;30.41
68456;BME280;55437;55.046;38.838;2024-03-06T07:19:52;101106.44;;;9.65;30.40
68456;BME280;55437;55.046;38.838;2024-03-06T07:22:19;101103.59;;;8.68;30.84
68456;BME280;55437;55.046;38.838;2024-03-06T07:25:10;101105.41;;;8.14;31.66
68456;BME280;55437;55.046;38.838;2024-03-06T07:27:36;101110.31;;;8.91;30.93
68456;BME280;55437;55.046;38.838;2024-03-06T07:30:02;101110.97;;;9.24;30.57
68456;BME280;55437;55.046;38.838;2024-03-06T07:32:29;101115.25;;;9.25;30.47
68456;BME280;55437;55.046;38.838;2024-03-06T07:34:55;101112.53;;;9.49;30.09
68456;BME280;55437;55.046;38.838;2024-03-06T07:37:21;101113.59;;;9.13;30.49
68456;BME280;55437;55.046;38.838;2024-03-06T07:39:53;101108.25;;;9.51;30.03
68456;BME280;55437;55.046;38.838;2024-03-06T07:42:24;101112.88;;;10.10;30.05
68456;BME280;55437;55.046;38.838;2024-03-06T07:44:49;101113.06;;;10.73;29.14
68456;BME280;55437;55.046;38.838;2024-03-06T07:47:16;101108.22;;;11.15;29.05
68456;BME280;55437;55.046;38.838;2024-03-06T07:49:42;101112.47;;;11.73;28.87
68456;BME280;55437;55.046;38.838;2024-03-06T07:52:10;101101.13;;;11.86;28.22
68456;BME280;55437;55.046;38.838;2024-03-06T07:54:36;101100.34;;;12.32;27.99
68456;BME280;55437;55.046;38.838;2024-03-06T07:57:03;101094.00;;;12.02;27.88
68456;BME280;55437;55.046;38.838;2024-03-06T07:59:29;101101.72;;;11.48;27.99
68456;BME280;55437;55.046;38.838;2024-03-06T08:01:55;101110.63;;;11.27;28.20
68456;BME280;55437;55.046;38.838;2024-03-06T08:04:22;101113.19;;;11.27;28.19
68456;BME280;55437;55.046;38.838;2024-03-06T08:06:49;101109.06;;;11.15;27.39
68456;BME280;55437;55.046;38.838;2024-03-06T08:09:15;101106.25;;;10.71;27.66
68456;BME280;55437;55.046;38.838;2024-03-06T08:11:42;101105.09;;;10.18;28.01
68456;BME280;55437;55.046;38.838;2024-03-06T08:14:08;101106.91;;;10.07;28.07
68456;BME280;55437;55.046;38.838;2024-03-06T08:16:34;101104.63;;;9.75;27.84
68456;BME280;55437;55.046;38.838;2024-03-06T08:19:00;101109.88;;;9.57;28.09
68456;BME280;55437;55.046;38.838;2024-03-06T08:21:26;101102.81;;;8.38;29.16
68456;BME280;55437;55.046;38.838;2024-03-06T08:23:52;101112.19;;;7.14;30.45
68456;BME280;55437;55.046;38.838;2024-03-06T08:26:18;101121.59;;;5.71;31.80
68456;BME280;55437;55.046;38.838;2024-03-06T08:28:44;101112.50;;;5.10;32.85
68456;BME280;55437;55.046;38.838;2024-03-06T08:31:10;101107.13;;;4.81;33.27
68456;BME280;55437;55.046;38.838;2024-03-06T08:33:36;101106.09;;;4.68;33.53
68456;BME280;55437;55.046;38.838;2024-03-06T08:36:02;101107.22;;;4.25;34.34
68456;BME280;55437;55.046;38.838;2024-03-06T08:38:30;101107.13;;;4.18;34.56
68456;BME280;55437;55.046;38.838;2024-03-06T08:40:56;101112.31;;;4.25;34.38
68456;BME280;55437;55.046;38.838;2024-03-06T08:43:22;101101.63;;;3.90;35.33
68456;BME280;55437;55.046;38.838;2024-03-06T08:45:48;101098.34;;;3.99;35.06
68456;BME280;55437;55.046;38.838;2024-03-06T08:48:14;101095.16;;;4.12;35.02
68456;BME280;55437;55.046;38.838;2024-03-06T08:50:40;101095.75;;;3.93;35.38
68456;BME280;55437;55.046;38.838;2024-03-06T08:53:06;101099.81;;;3.82;35.86
68456;BME280;55437;55.046;38.838;2024-03-06T08:55:32;101113.22;;;3.75;36.62
68456;BME280;55437;55.046;38.838;2024-03-06T08:57:58;101104.44;;;3.54;36.46
68456;BME280;55437;55.046;38.838;2024-03-06T09:00:24;101112.09;;;3.57;36.49
68456;BME280;55437;55.046;38.838;2024-03-06T09:02:52;101106.44;;;3.72;36.55
68456;BME280;55437;55.046;38.838;2024-03-06T09:05:19;101100.53;;;3.75;36.67
68456;BME280;55437;55.046;38.838;2024-03-06T09:07:47;101086.34;;;3.89;36.53
68456;BME280;55437;55.046;38.838;2024-03-06T09:10:13;101093.28;;;3.99;36.42
68456;BME280;55437;55.046;38.838;2024-03-06T09:12:41;101096.59;;;3.42;37.36
68456;BME280;55437;55.046;38.838;2024-03-06T09:15:07;101101.13;;;3.58;37.32
68456;BME280;55437;55.046;38.838;2024-03-06T09:17:34;101093.34;;;3.48;37.05
68456;BME280;55437;55.046;38.838;2024-03-06T09:20:00;101082.59;;;3.66;37.27
68456;BME280;55437;55.046;38.838;2024-03-06T09:22:39;101091.06;;;3.66;37.31
68456;BME280;55437;55.046;38.838;2024-03-06T09:25:06;101091.47;;;3.39;37.79
68456;BME280;55437;55.046;38.838;2024-03-06T09:27:33;101093.88;;;3.32;37.75
68456;BME280;55437;55.046;38.838;2024-03-06T09:29:59;101090.06;;;3.56;37.54
68456;BME280;55437;55.046;38.838;2024-03-06T09:32:25;101088.69;;;3.77;37.17
68456;BME280;55437;55.046;38.838;2024-03-06T09:34:53;101084.78;;;3.95;36.94
68456;BME280;55437;55.046;38.838;2024-03-06T09:37:20;101079.97;;;4.15;36.65
68456;BME280;55437;55.046;38.838;2024-03-06T09:39:46;101085.03;;;4.14;36.49
68456;BME280;55437;55.046;38.838;2024-03-06T09:42:16;101083.38;;;4.16;36.82
68456;BME280;55437;55.046;38.838;2024-03-06T09:44:43;101075.88;;;3.68;37.00
68456;BME280;55437;55.046;38.838;2024-03-06T09:47:13;101079.06;;;3.56;37.01
68456;BME280;55437;55.046;38.838;2024-03-06T09:49:42;101077.72;;;3.78;37.45
68456;BME280;55437;55.046;38.838;2024-03-06T09:52:09;101079.91;;;4.09;37.17
68456;BME280;55437;55.046;38.838;2024-03-06T09:54:37;101077.47;;;4.18;37.52
68456;BME280;55437;55.046;38.838;2024-03-06T09:57:07;101074.88;;;4.15;37.15
68456;BME280;55437;55.046;38.838;2024-03-06T09:59:33;101070.72;;;4.20;37.38
68456;BME280;55437;55.046;38.838;2024-03-06T10:02:01;101067.41;;;4.26;37.39
68456;BME280;55437;55.046;38.838;2024-03-06T10:04:35;101078.75;;;4.51;37.40
68456;BME280;55437;55.046;38.838;2024-03-06T10:07:03;101077.41;;;4.83;37.21
68456;BME280;55437;55.046;38.838;2024-03-06T10:09:29;101069.34;;;5.21;36.66
68456;BME280;55437;55.046;38.838;2024-03-06T10:11:56;101064.03;;;5.96;36.64
68456;BME280;55437;55.046;38.838;2024-03-06T10:14:26;101070.34;;;6.68;35.93
68456;BME280;55437;55.046;38.838;2024-03-06T10:16:58;101068.69;;;6.88;34.93
68456;BME280;55437;55.046;38.838;2024-03-06T10:19:28;101061.94;;;7.04;34.92
68456;BME280;55437;55.046;38.838;2024-03-06T10:21:58;101054.25;;;6.92;34.64
68456;BME280;55437;55.046;38.838;2024-03-06T10:24:26;101062.66;;;6.58;34.80
68456;BME280;55437;55.046;38.838;2024-03-06T10:26:55;101068.53;;;6.37;34.63
68456;BME280;55437;55.046;38.838;2024-03-06T10:29:26;101062.31;;;5.95;34.57
68456;BME280;55437;55.046;38.838;2024-03-06T10:31:57;101060.47;;;5.74;34.66
68456;BME280;55437;55.046;38.838;2024-03-06T10:34:25;101059.41;;;5.48;34.72
68456;BME280;55437;55.046;38.838;2024-03-06T10:36:58;101059.88;;;5.06;35.23
68456;BME280;55437;55.046;38.838;2024-03-06T10:39:25;101054.84;;;5.12;34.55
68456;BME280;55437;55.046;38.838;2024-03-06T10:41:57;101059.41;;;5.50;34.40
68456;BME280;55437;55.046;38.838;2024-03-06T10:44:25;101062.75;;;5.46;34.18
68456;BME280;55437;55.046;38.838;2024-03-06T10:46:59;101055.09;;;5.44;34.10
68456;BME280;55437;55.046;38.838;2024-03-06T10:49:51;101050.88;;;5.44;34.53
68456;BME280;55437;55.046;38.838;2024-03-06T10:52:19;101061.13;;;5.51;34.24
68456;BME280;55437;55.046;38.838;2024-03-06T10:54:48;101054.25;;;5.43;34.41
68456;BME280;55437;55.046;38.838;2024-03-06T10:57:17;101050.56;;;5.11;34.71
68456;BME280;55437;55.046;38.838;2024-03-06T10:59:44;101058.19;;;5.06;34.73
68456;BME280;55437;55.046;38.838;2024-03-06T11:02:11;101041.31;;;5.21;34.41
68456;BME280;55437;55.046;38.838;2024-03-06T11:04:39;101047.41;;;5.35;34.37
68456;BME280;55437;55.046;38.838;2024-03-06T11:07:06;101054.19;;;5.36;34.36
68456;BME280;55437;55.046;38.838;2024-03-06T11:09:33;101052.25;;;5.11;34.69
68456;BME280;55437;55.046;38.838;2024-03-06T11:12:07;101040.38;;;5.06;34.54
68456;BME280;55437;55.046;38.838;2024-03-06T11:14:37;101042.53;;;4.73;34.90
68456;BME280;55437;55.046;38.838;2024-03-06T11:17:06;101041.47;;;4.53;35.32
68456;BME280;55437;55.046;38.838;2024-03-06T11:28:24;101034.72;;;3.90;36.29
68456;BME280;55437;55.046;38.838;2024-03-06T11:31:08;101024.66;;;3.96;36.32
68456;BME280;55437;55.046;38.838;2024-03-06T11:33:45;101023.84;;;4.02;35.98
68456;BME280;55437;55.046;38.838;2024-03-06T11:36:30;101019.50;;;3.93;36.00
68456;BME280;55437;55.046;38.838;2024-03-06T11:39:14;101026.19;;;3.85;35.77
68456;BME280;55437;55.046;38.838;2024-03-06T11:41:46;101027.00;;;3.84;35.93
68456;BME280;55437;55.046;38.838;2024-03-06T11:44:17;101025.31;;;3.83;36.46
68456;BME280;55437;55.046;38.838;2024-03-06T11:49:40;101014.81;;;4.20;36.06
68456;BME280;55437;55.046;38.838;2024-03-06T11:52:08;101014.47;;;3.96;36.28
68456;BME280;55437;55.046;38.838;2024-03-06T11:54:36;101018.41;;;3.76;36.66
68456;BME280;55437;55.046;38.838;2024-03-06T11:57:05;101027.75;;;3.77;36.43
68456;BME280;55437;55.046;38.838;2024-03-06T11:59:34;101020.22;;;3.83;36.58
68456;BME280;55437;55.046;38.838;2024-03-06T12:02:04;101023.84;;;4.02;37.01
68456;BME280;55437;55.046;38.838;2024-03-06T12:04:31;101019.00;;;4.18;36.86
68456;BME280;55437;55.046;38.838;2024-03-06T12:07:00;101023.28;;;4.21;36.94
68456;BME280;55437;55.046;38.838;2024-03-06T12:09:38;101016.41;;;4.15;37.07
68456;BME280;55437;55.046;38.838;2024-03-06T12:12:06;101012.13;;;4.11;37.37
68456;BME280;55437;55.046;38.838;2024-03-06T12:14:35;101013.91;;;4.17;37.48
68456;BME280;55437;55.046;38.838;2024-03-06T12:17:02;101016.41;;;4.15;37.42
68456;BME280;55437;55.046;38.838;2024-03-06T12:19:35;101010.22;;;3.95;37.55
68456;BME280;55437;55.046;38.838;2024-03-06T12:22:02;101017.91;;;3.98;37.50
68456;BME280;55437;55.046;38.838;2024-03-06T12:24:32;101006.13;;;4.05;37.35
68456;BME280;55437;55.046;38.838;2024-03-06T12:27:03;101009.59;;;4.10;37.17
68456;BME280;55437;55.046;38.838;2024-03-06T12:29:35;101008.78;;;4.14;36.90
68456;BME280;55437;55.046;38.838;2024-03-06T12:32:02;101003.66;;;4.12;37.21
68456;BME280;55437;55.046;38.838;2024-03-06T12:34:28;101007.25;;;4.28;36.87
68456;BME280;55437;55.046;38.838;2024-03-06T12:37:07;101009.16;;;4.43;36.26
68456;BME280;55437;55.046;38.838;2024-03-06T12:39:33;100996.63;;;4.58;36.02
68456;BME280;55437;55.046;38.838;2024-03-06T12:42:00;101000.13;;;4.69;35.79
68456;BME280;55437;55.046;38.838;2024-03-06T12:44:26;101003.59;;;4.79;35.73
68456;BME280;55437;55.046;38.838;2024-03-06T12:46:53;100997.72;;;4.84;35.77
68456;BME280;55437;55.046;38.838;2024-03-06T12:49:19;100994.94;;;4.61;36.09
68456;BME280;55437;55.046;38.838;2024-03-06T12:51:45;100987.28;;;4.61;36.11
68456;BME280;55437;55.046;38.838;2024-03-06T12:54:14;100989.81;;;4.60;36.27
68456;BME280;55437;55.046;38.838;2024-03-06T12:56:42;100990.72;;;4.63;36.09
68456;BME280;55437;55.046;38.838;2024-03-06T12:59:08;100985.47;;;4.48;36.03
68456;BME280;55437;55.046;38.838;2024-03-06T13:01:35;100977.78;;;4.44;36.12
68456;BME280;55437;55.046;38.838;2024-03-06T13:04:01;100979.41;;;4.37;35.58
68456;BME280;55437;55.046;38.838;2024-03-06T13:06:27;100977.53;;;4.24;35.68
68456;BME280;55437;55.046;38.838;2024-03-06T13:08:56;100982.59;;;4.19;35.93
68456;BME280;55437;55.046;38.838;2024-03-06T13:11:23;100979.31;;;4.29;35.98
68456;BME280;55437;55.046;38.838;2024-03-06T13:13:49;100975.16;;;4.36;36.26